createdAt,value
2017-08-13T00:00:14.089Z,1010.16
2017-08-13T00:01:24.065Z,1010.13
2017-08-13T00:02:34.324Z,1010.13
2017-08-13T00:03:44.623Z,1010.15
2017-08-13T00:04:55.187Z,1010.17
2017-08-13T00:06:05.519Z,1010.14
2017-08-13T00:07:15.481Z,1010.16
2017-08-13T00:08:25.447Z,1010.06
2017-08-13T00:09:35.715Z,1010.13
2017-08-13T00:10:45.997Z,1010.09
2017-08-13T00:11:56.271Z,1010.05
2017-08-13T00:13:06.235Z,1009.99
2017-08-13T00:14:16.520Z,1010.03
2017-08-13T00:15:26.789Z,1010.09
2017-08-13T00:16:37.005Z,1010.04
2017-08-13T00:17:46.978Z,1010.06
2017-08-13T00:18:56.622Z,1010
2017-08-13T00:20:06.915Z,1009.98
2017-08-13T00:21:16.884Z,1009.99
2017-08-13T00:22:26.789Z,1010
2017-08-13T00:23:36.749Z,1009.99
2017-08-13T00:24:47.050Z,1010.02
2017-08-13T00:25:57.343Z,1009.97
2017-08-13T00:27:07.321Z,1010.03
2017-08-13T00:28:17.542Z,1009.97
2017-08-13T00:29:27.514Z,1010.06
2017-08-13T00:30:37.471Z,1010
2017-08-13T00:31:47.433Z,1010.02
2017-08-13T00:32:57.386Z,1010.07
2017-08-13T00:34:07.932Z,1010.05
2017-08-13T00:35:18.214Z,1010.06
2017-08-13T00:36:28.204Z,1010.08
2017-08-13T00:37:38.486Z,1010.08
2017-08-13T00:38:48.152Z,1010.08
2017-08-13T00:39:58.677Z,1010.11
2017-08-13T00:41:08.639Z,1010.08
2017-08-13T00:42:18.611Z,1010.12
2017-08-13T00:43:28.884Z,1010.1
2017-08-13T00:44:39.178Z,1010.08
2017-08-13T00:45:49.398Z,1010.07
2017-08-13T00:46:59.373Z,1010.09
2017-08-13T00:48:09.350Z,1010.07
2017-08-13T00:49:19.010Z,1010.04
2017-08-13T00:50:28.981Z,1010.03
2017-08-13T00:51:39.526Z,1010.02
2017-08-13T00:52:49.489Z,1010.04
2017-08-13T00:53:59.773Z,1010.08
2017-08-13T00:55:10.048Z,1010.11
2017-08-13T00:56:20.008Z,1010.09
2017-08-13T00:57:30.544Z,1010.07
2017-08-13T00:58:40.512Z,1010.1
2017-08-13T00:59:50.479Z,1010.06
2017-08-13T01:01:00.750Z,1010.06
2017-08-13T01:02:11.027Z,1010.07
2017-08-13T01:03:21.542Z,1010.15
2017-08-13T01:04:31.833Z,1010.09
2017-08-13T01:05:42.132Z,1010.16
2017-08-13T01:06:52.416Z,1010.13
2017-08-13T01:08:02.380Z,1010.11
2017-08-13T01:09:12.906Z,1010.14
2017-08-13T01:10:23.177Z,1010.15
2017-08-13T01:11:33.455Z,1010.13
2017-08-13T01:12:43.099Z,1010.16
2017-08-13T01:13:52.756Z,1010.15
2017-08-13T01:15:02.689Z,1010.14
2017-08-13T01:16:12.973Z,1010.12
2017-08-13T01:17:23.242Z,1010.13
2017-08-13T01:18:32.913Z,1010.15
2017-08-13T01:19:42.565Z,1010.12
2017-08-13T01:20:53.095Z,1010.1
2017-08-13T01:22:02.768Z,1010.11
2017-08-13T01:23:12.750Z,1010.17
2017-08-13T01:24:23.025Z,1010.2
2017-08-13T01:25:33.290Z,1010.16
2017-08-13T01:26:43.814Z,1010.14
2017-08-13T01:27:54.105Z,1010.17
2017-08-13T01:29:04.396Z,1010.13
2017-08-13T01:30:14.699Z,1010.18
2017-08-13T01:31:24.677Z,1010.2
2017-08-13T01:32:34.897Z,1010.19
2017-08-13T01:33:45.182Z,1010.2
2017-08-13T01:34:55.457Z,1010.2
2017-08-13T01:36:05.722Z,1010.2
2017-08-13T01:37:15.687Z,1010.21
2017-08-13T01:38:26.233Z,1010.2
2017-08-13T01:39:36.493Z,1010.22
2017-08-13T01:40:46.787Z,1010.24
2017-08-13T01:41:56.749Z,1010.17
2017-08-13T01:43:07.033Z,1010.18
2017-08-13T01:44:16.950Z,1010.16
2017-08-13T01:45:26.611Z,1010.19
2017-08-13T01:46:36.878Z,1010.21
2017-08-13T01:47:46.843Z,1010.22
2017-08-13T01:48:56.806Z,1010.24
2017-08-13T01:50:07.018Z,1010.23
2017-08-13T01:51:17.288Z,1010.26
2017-08-13T01:52:26.936Z,1010.28
2017-08-13T01:53:37.210Z,1010.29
2017-08-13T01:54:47.501Z,1010.26
2017-08-13T01:55:57.710Z,1010.24
2017-08-13T01:57:07.381Z,1010.23
2017-08-13T01:58:17.662Z,1010.24
2017-08-13T01:59:27.323Z,1010.3
2017-08-13T02:00:37.302Z,1010.3
2017-08-13T02:01:47.857Z,1010.32
2017-08-13T02:02:58.123Z,1010.33
2017-08-13T02:04:08.083Z,1010.36
2017-08-13T02:05:17.730Z,1010.37
2017-08-13T02:06:28.001Z,1010.38
2017-08-13T02:07:38.526Z,1010.37
2017-08-13T02:08:48.507Z,1010.4
2017-08-13T02:09:58.777Z,1010.44
2017-08-13T02:11:09.046Z,1010.43
2017-08-13T02:12:19.009Z,1010.44
2017-08-13T02:13:29.254Z,1010.45
2017-08-13T02:14:39.535Z,1010.46
2017-08-13T02:15:49.491Z,1010.51
2017-08-13T02:16:59.759Z,1010.49
2017-08-13T02:18:09.409Z,1010.51
2017-08-13T02:19:19.620Z,1010.56
2017-08-13T02:20:29.583Z,1010.52
2017-08-13T02:21:39.558Z,1010.51
2017-08-13T02:22:49.848Z,1010.51
2017-08-13T02:24:00.124Z,1010.56
2017-08-13T02:25:10.664Z,1010.55
2017-08-13T02:26:20.946Z,1010.56
2017-08-13T02:27:30.932Z,1010.55
2017-08-13T02:28:41.227Z,1010.57
2017-08-13T02:29:51.511Z,1010.54
2017-08-13T02:31:02.044Z,1010.59
2017-08-13T02:32:12.340Z,1010.54
2017-08-13T02:33:22.312Z,1010.59
2017-08-13T02:34:32.588Z,1010.65
2017-08-13T02:35:42.878Z,1010.62
2017-08-13T02:36:53.416Z,1010.66
2017-08-13T02:38:03.066Z,1010.71
2017-08-13T02:39:13.339Z,1010.74
2017-08-13T02:40:23.611Z,1010.71
2017-08-13T02:41:33.890Z,1010.74
2017-08-13T02:42:44.121Z,1010.79
2017-08-13T02:43:54.104Z,1010.78
2017-08-13T02:45:04.377Z,1010.8
2017-08-13T02:46:14.345Z,1010.82
2017-08-13T02:47:24.335Z,1010.81
2017-08-13T02:48:34.870Z,1010.79
2017-08-13T02:49:45.160Z,1010.82
2017-08-13T02:50:55.133Z,1010.84
2017-08-13T02:52:05.432Z,1010.82
2017-08-13T02:53:15.705Z,1010.82
2017-08-13T02:54:26.293Z,1010.8
2017-08-13T02:55:36.558Z,1010.82
2017-08-13T02:56:46.826Z,1010.86
2017-08-13T02:57:57.106Z,1010.9
2017-08-13T02:59:06.777Z,1010.91
2017-08-13T03:00:17.306Z,1010.9
2017-08-13T03:01:27.571Z,1010.95
2017-08-13T03:02:37.846Z,1010.95
2017-08-13T03:03:48.123Z,1010.9
2017-08-13T03:04:58.075Z,1010.9
2017-08-13T03:06:08.300Z,1010.91
2017-08-13T03:07:18.280Z,1010.93
2017-08-13T03:08:28.245Z,1010.9
2017-08-13T03:09:38.539Z,1010.9
2017-08-13T03:10:48.505Z,1010.91
2017-08-13T03:11:59.042Z,1010.9
2017-08-13T03:13:09.316Z,1010.91
2017-08-13T03:14:19.274Z,1010.91
2017-08-13T03:15:28.931Z,1010.99
2017-08-13T03:16:38.890Z,1010.95
2017-08-13T03:17:49.116Z,1010.95
2017-08-13T03:18:59.409Z,1010.95
2017-08-13T03:20:09.695Z,1011.01
2017-08-13T03:21:19.975Z,1011.01
2017-08-13T03:22:29.927Z,1011.03
2017-08-13T03:23:40.452Z,1011.03
2017-08-13T03:24:50.720Z,1011.03
2017-08-13T03:26:00.683Z,1011.01
2017-08-13T03:27:10.961Z,1011.03
2017-08-13T03:28:21.241Z,1010.99
2017-08-13T03:29:31.446Z,1011
2017-08-13T03:30:41.117Z,1010.98
2017-08-13T03:31:51.082Z,1010.97
2017-08-13T03:33:01.373Z,1010.86
2017-08-13T03:34:11.643Z,1010.94
2017-08-13T03:35:22.181Z,1010.91
2017-08-13T03:36:32.458Z,1010.92
2017-08-13T03:37:42.723Z,1010.91
2017-08-13T03:38:52.681Z,1010.95
2017-08-13T03:40:02.636Z,1010.94
2017-08-13T03:41:13.159Z,1011.02
2017-08-13T03:42:23.445Z,1011
2017-08-13T03:43:33.399Z,1011.06
2017-08-13T03:44:43.355Z,1011.14
2017-08-13T03:45:53.611Z,1011.16
2017-08-13T03:47:04.138Z,1011.15
2017-08-13T03:48:14.414Z,1011.16
2017-08-13T03:49:24.692Z,1011.16
2017-08-13T03:50:34.968Z,1011.2
2017-08-13T03:51:45.249Z,1011.21
2017-08-13T03:52:55.768Z,1011.16
2017-08-13T03:54:06.047Z,1011.18
2017-08-13T03:55:16.016Z,1011.17
2017-08-13T03:56:25.983Z,1011.12
2017-08-13T03:57:36.262Z,1011.13
2017-08-13T03:58:46.491Z,1011.07
2017-08-13T03:59:56.765Z,1011.13
2017-08-13T04:01:07.042Z,1011.08
2017-08-13T04:02:17.310Z,1011.09
2017-08-13T04:03:27.582Z,1011.09
2017-08-13T04:04:37.793Z,1011.06
2017-08-13T04:05:48.071Z,1011.06
2017-08-13T04:06:58.354Z,1011.08
2017-08-13T04:08:08.628Z,1011.09
2017-08-13T04:09:18.905Z,1011.03
2017-08-13T04:10:29.448Z,1011.02
2017-08-13T04:11:39.745Z,1011.02
2017-08-13T04:12:50.021Z,1011.04
2017-08-13T04:14:00.306Z,1011.04
2017-08-13T04:15:10.588Z,1011.13
2017-08-13T04:16:21.118Z,1011.13
2017-08-13T04:17:30.766Z,1011.17
2017-08-13T04:18:41.040Z,1011.21
2017-08-13T04:19:50.695Z,1011.21
2017-08-13T04:21:00.348Z,1011.2
2017-08-13T04:22:10.579Z,1011.24
2017-08-13T04:23:20.846Z,1011.25
2017-08-13T04:24:30.814Z,1011.25
2017-08-13T04:25:40.783Z,1011.31
2017-08-13T04:26:51.063Z,1011.29
2017-08-13T04:28:01.600Z,1011.33
2017-08-13T04:29:11.878Z,1011.31
2017-08-13T04:30:21.854Z,1011.33
2017-08-13T04:31:32.124Z,1011.35
2017-08-13T04:32:42.096Z,1011.35
2017-08-13T04:33:52.632Z,1011.4
2017-08-13T04:35:02.599Z,1011.4
2017-08-13T04:36:12.574Z,1011.45
2017-08-13T04:37:22.539Z,1011.47
2017-08-13T04:38:32.811Z,1011.53
2017-08-13T04:39:43.335Z,1011.56
2017-08-13T04:40:53.303Z,1011.53
2017-08-13T04:42:02.963Z,1011.5
2017-08-13T04:43:12.936Z,1011.59
2017-08-13T04:44:22.891Z,1011.59
2017-08-13T04:45:33.435Z,1011.54
2017-08-13T04:46:43.402Z,1011.52
2017-08-13T04:47:53.678Z,1011.57
2017-08-13T04:49:03.328Z,1011.59
2017-08-13T04:50:13.305Z,1011.57
2017-08-13T04:51:23.510Z,1011.6
2017-08-13T04:52:33.796Z,1011.61
2017-08-13T04:53:43.763Z,1011.62
2017-08-13T04:54:54.044Z,1011.67
2017-08-13T04:56:04.325Z,1011.67
2017-08-13T04:57:14.860Z,1011.69
2017-08-13T04:58:25.142Z,1011.73
2017-08-13T04:59:35.116Z,1011.7
2017-08-13T05:00:45.388Z,1011.69
2017-08-13T05:01:55.909Z,1011.72
2017-08-13T05:03:06.132Z,1011.73
2017-08-13T05:04:16.098Z,1011.77
2017-08-13T05:05:26.385Z,1011.75
2017-08-13T05:06:36.357Z,1011.81
2017-08-13T05:07:46.640Z,1011.81
2017-08-13T05:08:57.163Z,1011.84
2017-08-13T05:10:07.432Z,1011.88
2017-08-13T05:11:17.382Z,1011.82
2017-08-13T05:12:27.657Z,1011.87
2017-08-13T05:13:37.937Z,1011.85
2017-08-13T05:14:48.159Z,1011.88
2017-08-13T05:15:58.418Z,1011.87
2017-08-13T05:17:08.693Z,1011.92
2017-08-13T05:18:18.950Z,1011.88
2017-08-13T05:19:28.602Z,1011.9
2017-08-13T05:20:38.822Z,1011.89
2017-08-13T05:21:49.105Z,1011.85
2017-08-13T05:22:59.375Z,1011.82
2017-08-13T05:24:09.638Z,1011.85
2017-08-13T05:25:19.912Z,1011.88
2017-08-13T05:26:30.448Z,1011.89
2017-08-13T05:27:40.726Z,1011.91
2017-08-13T05:28:50.376Z,1011.8
2017-08-13T05:30:00.338Z,1011.8
2017-08-13T05:31:10.300Z,1011.87
2017-08-13T05:32:20.509Z,1011.86
2017-08-13T05:33:30.785Z,1011.9
2017-08-13T05:34:41.047Z,1011.88
2017-08-13T05:35:51.310Z,1011.95
2017-08-13T05:37:00.966Z,1011.87
2017-08-13T05:38:11.185Z,1011.89
2017-08-13T05:39:21.150Z,1011.87
2017-08-13T05:40:31.440Z,1011.89
2017-08-13T05:41:41.715Z,1011.89
2017-08-13T05:42:51.984Z,1011.93
2017-08-13T05:44:02.519Z,1011.94
2017-08-13T05:45:12.487Z,1011.97
2017-08-13T05:46:22.163Z,1011.98
2017-08-13T05:47:32.478Z,1011.96
2017-08-13T05:48:42.749Z,1011.95
2017-08-13T05:49:52.987Z,1011.96
2017-08-13T05:51:03.256Z,1012.01
2017-08-13T05:52:13.221Z,1012.07
2017-08-13T05:53:23.491Z,1012.01
2017-08-13T05:54:33.772Z,1012.04
2017-08-13T05:55:44.362Z,1012.07
2017-08-13T05:56:54.635Z,1012.08
2017-08-13T05:58:04.919Z,1012.07
2017-08-13T05:59:14.880Z,1012.04
2017-08-13T06:00:25.185Z,1012.03
2017-08-13T06:01:35.394Z,1012.06
2017-08-13T06:02:45.670Z,1012.04
2017-08-13T06:03:55.651Z,1012.05
2017-08-13T06:05:05.612Z,1012.08
2017-08-13T06:06:15.894Z,1012.03
2017-08-13T06:07:26.440Z,1012.12
2017-08-13T06:08:36.733Z,1012.11
2017-08-13T06:09:47.035Z,1012.11
2017-08-13T06:10:57.316Z,1012.12
2017-08-13T06:12:07.293Z,1012.18
2017-08-13T06:13:17.506Z,1012.19
2017-08-13T06:14:27.784Z,1012.22
2017-08-13T06:15:37.747Z,1012.24
2017-08-13T06:16:48.024Z,1012.24
2017-08-13T06:17:58.306Z,1012.24
2017-08-13T06:19:08.540Z,1012.27
2017-08-13T06:20:18.800Z,1012.22
2017-08-13T06:21:28.794Z,1012.28
2017-08-13T06:22:38.450Z,1012.24
2017-08-13T06:23:48.723Z,1012.26
2017-08-13T06:24:59.256Z,1012.3
2017-08-13T06:26:09.544Z,1012.27
2017-08-13T06:27:19.202Z,1012.28
2017-08-13T06:28:29.512Z,1012.29
2017-08-13T06:29:39.801Z,1012.31
2017-08-13T06:30:50.782Z,1012.31
2017-08-13T06:32:00.763Z,1012.31
2017-08-13T06:33:11.032Z,1012.33
2017-08-13T06:34:21.313Z,1012.35
2017-08-13T06:35:31.281Z,1012.33
2017-08-13T06:36:41.192Z,1012.35
2017-08-13T06:37:51.162Z,1012.41
2017-08-13T06:39:01.133Z,1012.43
2017-08-13T06:40:11.406Z,1012.43
2017-08-13T06:41:21.374Z,1012.43
2017-08-13T06:42:31.582Z,1012.41
2017-08-13T06:43:41.850Z,1012.45
2017-08-13T06:44:52.169Z,1012.43
2017-08-13T06:46:02.444Z,1012.49
2017-08-13T06:47:12.085Z,1012.52
2017-08-13T06:48:21.988Z,1012.56
2017-08-13T06:49:31.978Z,1012.59
2017-08-13T06:50:42.269Z,1012.62
2017-08-13T06:51:52.563Z,1012.64
2017-08-13T06:53:02.538Z,1012.6
2017-08-13T06:54:13.067Z,1012.6
2017-08-13T06:55:23.039Z,1012.64
2017-08-13T06:56:33.001Z,1012.64
2017-08-13T06:57:43.290Z,1012.62
2017-08-13T06:58:53.557Z,1012.63
2017-08-13T07:00:04.078Z,1012.65
2017-08-13T07:01:14.351Z,1012.62
2017-08-13T07:02:24.320Z,1012.62
2017-08-13T07:03:34.588Z,1012.64
2017-08-13T07:04:44.548Z,1012.56
2017-08-13T07:05:55.079Z,1012.57
2017-08-13T07:07:05.034Z,1012.58
2017-08-13T07:08:15.310Z,1012.56
2017-08-13T07:09:25.279Z,1012.59
2017-08-13T07:10:35.275Z,1012.65
2017-08-13T07:11:45.806Z,1012.66
2017-08-13T07:12:55.770Z,1012.63
2017-08-13T07:14:05.737Z,1012.68
2017-08-13T07:15:16.020Z,1012.65
2017-08-13T07:16:25.653Z,1012.74
2017-08-13T07:17:35.579Z,1012.68
2017-08-13T07:18:45.871Z,1012.73
2017-08-13T07:19:55.831Z,1012.74
2017-08-13T07:21:05.797Z,1012.74
2017-08-13T07:22:16.103Z,1012.73
2017-08-13T07:23:26.341Z,1012.84
2017-08-13T07:24:36.633Z,1012.76
2017-08-13T07:25:46.905Z,1012.79
2017-08-13T07:26:57.177Z,1012.78
2017-08-13T07:28:06.830Z,1012.75
2017-08-13T07:29:17.086Z,1012.72
2017-08-13T07:30:27.379Z,1012.79
2017-08-13T07:31:37.346Z,1012.78
2017-08-13T07:32:47.618Z,1012.78
2017-08-13T07:33:57.917Z,1012.78
2017-08-13T07:35:07.825Z,1012.8
2017-08-13T07:36:18.123Z,1012.74
2017-08-13T07:37:28.408Z,1012.73
2017-08-13T07:38:38.710Z,1012.77
2017-08-13T07:39:48.982Z,1012.75
2017-08-13T07:40:59.524Z,1012.76
2017-08-13T07:42:09.492Z,1012.82
2017-08-13T07:43:19.773Z,1012.85
2017-08-13T07:44:29.434Z,1012.84
2017-08-13T07:45:39.407Z,1012.85
2017-08-13T07:46:49.626Z,1012.84
2017-08-13T07:47:59.598Z,1012.81
2017-08-13T07:49:09.265Z,1012.87
2017-08-13T07:50:19.224Z,1012.91
2017-08-13T07:51:29.193Z,1012.91
2017-08-13T07:52:38.783Z,1012.84
2017-08-13T07:53:49.050Z,1012.88
2017-08-13T07:54:59.015Z,1013.06
2017-08-13T07:56:09.311Z,1013
2017-08-13T07:57:18.997Z,1012.97
2017-08-13T07:58:29.262Z,1012.91
2017-08-13T07:59:39.245Z,1012.99
2017-08-13T08:00:49.552Z,1012.89
2017-08-13T08:01:59.832Z,1012.97
2017-08-13T08:03:09.813Z,1012.93
2017-08-13T08:04:20.042Z,1012.91
2017-08-13T08:05:30.307Z,1012.99
2017-08-13T08:06:40.581Z,1012.94
2017-08-13T08:07:50.252Z,1012.99
2017-08-13T08:09:00.241Z,1012.95
2017-08-13T08:10:10.458Z,1012.95
2017-08-13T08:11:20.444Z,1012.98
2017-08-13T08:12:30.726Z,1012.97
2017-08-13T08:13:40.698Z,1012.96
2017-08-13T08:14:50.352Z,1013.01
2017-08-13T08:16:00.894Z,1013
2017-08-13T08:17:10.858Z,1013.01
2017-08-13T08:18:21.133Z,1013.04
2017-08-13T08:19:31.159Z,1013.05
2017-08-13T08:20:41.448Z,1013.02
2017-08-13T08:21:51.671Z,1012.99
2017-08-13T08:23:01.975Z,1012.95
2017-08-13T08:24:12.258Z,1012.91
2017-08-13T08:25:22.227Z,1012.97
2017-08-13T08:26:32.514Z,1012.98
2017-08-13T08:27:43.062Z,1012.97
2017-08-13T08:28:53.030Z,1013.05
2017-08-13T08:30:03.312Z,1013.04
2017-08-13T08:31:13.322Z,1013.02
2017-08-13T08:32:23.605Z,1012.99
2017-08-13T08:33:33.540Z,1013
2017-08-13T08:34:43.842Z,1013.07
2017-08-13T08:35:54.113Z,1013.12
2017-08-13T08:37:03.783Z,1013.06
2017-08-13T08:38:14.061Z,1013.09
2017-08-13T08:39:24.300Z,1013.16
2017-08-13T08:40:34.276Z,1013.11
2017-08-13T08:41:44.555Z,1013.06
2017-08-13T08:42:54.230Z,1013.16
2017-08-13T08:44:04.502Z,1013.14
2017-08-13T08:45:14.747Z,1013.17
2017-08-13T08:46:25.024Z,1013.2
2017-08-13T08:47:34.680Z,1013.15
2017-08-13T08:48:44.348Z,1013.28
2017-08-13T08:49:54.635Z,1013.22
2017-08-13T08:51:04.934Z,1013.29
2017-08-13T08:52:14.606Z,1013.3
2017-08-13T08:53:24.303Z,1013.23
2017-08-13T08:54:34.598Z,1013.2
2017-08-13T08:55:44.578Z,1013.21
2017-08-13T08:56:55.119Z,1013.3
2017-08-13T08:58:05.409Z,1013.23
2017-08-13T08:59:15.373Z,1013.31
2017-08-13T09:00:25.673Z,1013.3
2017-08-13T09:01:35.628Z,1013.32
2017-08-13T09:02:46.164Z,1013.37
2017-08-13T09:03:55.846Z,1013.31
2017-08-13T09:05:05.833Z,1013.35
2017-08-13T09:06:16.123Z,1013.36
2017-08-13T09:07:26.427Z,1013.33
2017-08-13T09:08:36.985Z,1013.34
2017-08-13T09:09:47.272Z,1013.46
2017-08-13T09:10:57.271Z,1013.38
2017-08-13T09:12:07.557Z,1013.36
2017-08-13T09:13:17.865Z,1013.4
2017-08-13T09:14:28.406Z,1013.39
2017-08-13T09:15:38.697Z,1013.48
2017-08-13T09:16:48.999Z,1013.4
2017-08-13T09:17:58.977Z,1013.45
2017-08-13T09:19:09.287Z,1013.37
2017-08-13T09:20:19.505Z,1013.35
2017-08-13T09:21:29.806Z,1013.4
2017-08-13T09:22:39.793Z,1013.4
2017-08-13T09:23:49.770Z,1013.39
2017-08-13T09:25:00.050Z,1013.4
2017-08-13T09:26:10.309Z,1013.51
2017-08-13T09:27:20.591Z,1013.5
2017-08-13T09:28:30.878Z,1013.51
2017-08-13T09:29:40.546Z,1013.45
2017-08-13T09:30:50.858Z,1013.64
2017-08-13T09:32:01.091Z,1013.58
2017-08-13T09:33:11.372Z,1013.59
2017-08-13T09:34:21.698Z,1013.68
2017-08-13T09:35:31.987Z,1013.54
2017-08-13T09:36:42.269Z,1013.59
2017-08-13T09:37:52.489Z,1013.54
2017-08-13T09:39:02.470Z,1013.54
2017-08-13T09:40:12.747Z,1013.6
2017-08-13T09:41:23.044Z,1013.53
2017-08-13T09:42:33.334Z,1013.58
2017-08-13T09:43:43.905Z,1013.58
2017-08-13T09:44:53.900Z,1013.53
2017-08-13T09:46:04.191Z,1013.54
2017-08-13T09:47:14.170Z,1013.55
2017-08-13T09:48:24.470Z,1013.62
2017-08-13T09:49:35.016Z,1013.57
2017-08-13T09:50:45.000Z,1013.6
2017-08-13T09:51:54.992Z,1013.63
2017-08-13T09:53:04.989Z,1013.64
2017-08-13T09:54:15.281Z,1013.61
2017-08-13T09:55:25.527Z,1013.6
2017-08-13T09:56:35.823Z,1013.54
2017-08-13T09:57:46.108Z,1013.57
2017-08-13T09:58:56.408Z,1013.56
2017-08-13T10:00:06.704Z,1013.57
2017-08-13T10:01:17.254Z,1013.52
2017-08-13T10:02:27.569Z,1013.62
2017-08-13T10:03:37.861Z,1013.51
2017-08-13T10:04:47.531Z,1013.5
2017-08-13T10:05:57.836Z,1013.55
2017-08-13T10:07:08.376Z,1013.58
2017-08-13T10:08:18.687Z,1013.59
2017-08-13T10:09:28.690Z,1013.56
2017-08-13T10:10:38.974Z,1013.54
2017-08-13T10:11:48.953Z,1013.52
2017-08-13T10:12:59.511Z,1013.65
2017-08-13T10:14:09.809Z,1013.59
2017-08-13T10:15:20.147Z,1013.71
2017-08-13T10:16:30.449Z,1013.68
2017-08-13T10:17:40.433Z,1013.63
2017-08-13T10:18:55.779Z,1013.66
2017-08-13T10:20:06.096Z,1013.66
2017-08-13T10:21:16.443Z,1013.67
2017-08-13T10:22:26.762Z,1013.72
2017-08-13T10:23:36.736Z,1013.66
2017-08-13T10:24:46.977Z,1013.66
2017-08-13T10:25:57.068Z,1013.63
2017-08-13T10:27:07.381Z,1013.7
2017-08-13T10:28:17.360Z,1013.66
2017-08-13T10:29:27.361Z,1013.64
2017-08-13T10:30:37.583Z,1013.7
2017-08-13T10:31:47.551Z,1013.75
2017-08-13T10:32:57.216Z,1013.65
2017-08-13T10:34:07.225Z,1013.67
2017-08-13T10:35:17.513Z,1013.66
2017-08-13T10:36:27.763Z,1013.67
2017-08-13T10:37:38.041Z,1013.71
2017-08-13T10:38:48.320Z,1013.74
2017-08-13T10:39:58.314Z,1013.8
2017-08-13T10:41:08.273Z,1013.78
2017-08-13T10:42:18.950Z,1013.76
2017-08-13T10:43:28.307Z,1013.71
2017-08-13T10:44:38.835Z,1013.74
2017-08-13T10:45:48.608Z,1013.66
2017-08-13T10:46:58.910Z,1013.86
2017-08-13T10:48:09.465Z,1013.79
2017-08-13T10:49:19.449Z,1013.8
2017-08-13T10:50:29.455Z,1013.76
2017-08-13T10:51:39.766Z,1013.75
2017-08-13T10:52:50.060Z,1013.69
2017-08-13T10:54:00.601Z,1013.77
2017-08-13T10:55:10.574Z,1013.77
2017-08-13T10:56:20.869Z,1013.79
2017-08-13T10:57:30.832Z,1013.78
2017-08-13T10:58:40.817Z,1013.76
2017-08-13T10:59:51.365Z,1013.78
2017-08-13T11:01:01.337Z,1013.79
2017-08-13T11:02:11.350Z,1013.73
2017-08-13T11:03:21.343Z,1013.72
2017-08-13T11:04:31.337Z,1013.79
2017-08-13T11:05:41.874Z,1013.65
2017-08-13T11:06:51.546Z,1013.6
2017-08-13T11:08:01.853Z,1013.61
2017-08-13T11:09:12.163Z,1013.64
2017-08-13T11:10:22.452Z,1013.65
2017-08-13T11:11:32.691Z,1013.68
2017-08-13T11:12:42.987Z,1013.69
2017-08-13T11:13:52.959Z,1013.64
2017-08-13T11:15:03.257Z,1013.65
2017-08-13T11:16:12.643Z,1013.66
2017-08-13T11:17:22.890Z,1013.89
2017-08-13T11:18:33.199Z,1013.89
2017-08-13T11:19:43.552Z,1013.94
2017-08-13T11:20:53.842Z,1013.77
2017-08-13T11:22:03.829Z,1013.86
2017-08-13T11:23:14.393Z,1013.92
2017-08-13T11:24:24.695Z,1013.88
2017-08-13T11:25:34.664Z,1013.83
2017-08-13T11:26:44.956Z,1013.76
2017-08-13T11:27:55.263Z,1013.74
2017-08-13T11:29:05.794Z,1013.78
2017-08-13T11:30:15.787Z,1013.76
2017-08-13T11:31:25.771Z,1013.77
2017-08-13T11:32:36.099Z,1013.75
2017-08-13T11:33:46.390Z,1013.73
2017-08-13T11:34:56.990Z,1013.84
2017-08-13T11:36:07.278Z,1013.81
2017-08-13T11:37:17.577Z,1013.76
2017-08-13T11:38:27.564Z,1013.72
2017-08-13T11:39:37.849Z,1013.7
2017-08-13T11:40:48.392Z,1013.71
2017-08-13T11:41:58.687Z,1013.7
2017-08-13T11:43:08.667Z,1013.63
2017-08-13T11:44:18.975Z,1013.68
2017-08-13T11:45:29.317Z,1013.61
2017-08-13T11:46:39.856Z,1013.75
2017-08-13T11:47:50.150Z,1013.72
2017-08-13T11:49:00.123Z,1013.7
2017-08-13T11:50:10.413Z,1013.77
2017-08-13T11:51:20.706Z,1013.77
2017-08-13T11:52:31.234Z,1013.88
2017-08-13T11:53:40.886Z,1013.82
2017-08-13T11:54:50.899Z,1013.97
2017-08-13T11:56:01.232Z,1013.84
2017-08-13T11:57:11.511Z,1013.85
2017-08-13T11:58:22.065Z,1013.88
2017-08-13T11:59:32.362Z,1013.77
2017-08-13T12:00:42.634Z,1013.81
2017-08-13T12:01:52.954Z,1013.82
2017-08-13T12:03:02.941Z,1013.78
2017-08-13T12:04:13.477Z,1013.79
2017-08-13T12:05:23.766Z,1013.83
2017-08-13T12:06:33.761Z,1013.87
2017-08-13T12:07:43.768Z,1013.79
2017-08-13T12:08:54.045Z,1013.8
2017-08-13T12:10:03.992Z,1013.85
2017-08-13T12:11:13.962Z,1013.88
2017-08-13T12:12:24.257Z,1013.87
2017-08-13T12:13:34.547Z,1013.88
2017-08-13T12:14:44.830Z,1013.8
2017-08-13T12:15:55.053Z,1013.79
2017-08-13T12:17:05.347Z,1013.78
2017-08-13T12:18:15.649Z,1013.79
2017-08-13T12:19:25.938Z,1013.84
2017-08-13T12:20:36.230Z,1013.86
2017-08-13T12:21:46.130Z,1013.83
2017-08-13T12:22:56.434Z,1013.88
2017-08-13T12:24:06.716Z,1013.84
2017-08-13T12:25:16.999Z,1013.84
2017-08-13T12:26:27.277Z,1013.81
2017-08-13T12:27:37.511Z,1013.89
2017-08-13T12:28:47.819Z,1013.85
2017-08-13T12:29:57.803Z,1013.8
2017-08-13T12:31:08.093Z,1013.79
2017-08-13T12:32:18.282Z,1013.83
2017-08-13T12:33:28.831Z,1013.79
2017-08-13T12:34:38.490Z,1013.88
2017-08-13T12:35:48.799Z,1013.79
2017-08-13T12:36:59.125Z,1013.81
2017-08-13T12:38:09.414Z,1013.86
2017-08-13T12:39:19.340Z,1013.87
2017-08-13T12:40:29.658Z,1013.88
2017-08-13T12:41:39.940Z,1013.94
2017-08-13T12:42:49.285Z,1013.92
2017-08-13T12:43:59.256Z,1014.04
2017-08-13T12:45:09.804Z,1013.95
2017-08-13T12:46:20.112Z,1013.93
2017-08-13T12:47:30.115Z,1013.93
2017-08-13T12:48:40.083Z,1013.97
2017-08-13T12:49:50.368Z,1013.96
2017-08-13T12:51:00.607Z,1014.03
2017-08-13T12:52:10.899Z,1014.01
2017-08-13T12:53:21.196Z,1013.96
2017-08-13T12:54:31.167Z,1013.96
2017-08-13T12:55:41.156Z,1013.9
2017-08-13T12:56:51.701Z,1013.96
2017-08-13T12:58:01.983Z,1013.98
2017-08-13T12:59:11.646Z,1014.04
2017-08-13T13:00:21.624Z,1014
2017-08-13T13:01:32.016Z,1013.89
2017-08-13T13:02:42.238Z,1013.98
2017-08-13T13:03:52.521Z,1013.97
2017-08-13T13:05:02.826Z,1013.95
2017-08-13T13:06:12.489Z,1013.94
2017-08-13T13:07:22.488Z,1013.99
2017-08-13T13:08:32.427Z,1013.96
2017-08-13T13:09:42.423Z,1014.01
2017-08-13T13:10:52.720Z,1014.01
2017-08-13T13:12:03.019Z,1013.95
2017-08-13T13:13:13.308Z,1014.05
2017-08-13T13:14:23.898Z,1013.94
2017-08-13T13:15:34.224Z,1013.97
2017-08-13T13:16:44.233Z,1014
2017-08-13T13:17:54.526Z,1014.01
2017-08-13T13:19:04.503Z,1014.07
2017-08-13T13:20:15.046Z,1013.91
2017-08-13T13:21:25.818Z,1014.05
2017-08-13T13:22:36.122Z,1013.98
2017-08-13T13:23:46.417Z,1014.06
2017-08-13T13:24:56.712Z,1014.05
2017-08-13T13:26:07.269Z,1014.06
2017-08-13T13:27:16.943Z,1014.02
2017-08-13T13:28:27.248Z,1014.09
2017-08-13T13:29:37.543Z,1014
2017-08-13T13:30:47.838Z,1014.01
2017-08-13T13:31:58.392Z,1014.11
2017-08-13T13:33:08.381Z,1014.05
2017-08-13T13:34:18.356Z,1014.01
2017-08-13T13:35:28.655Z,1014.02
2017-08-13T13:36:38.626Z,1014.04
2017-08-13T13:37:48.857Z,1014.17
2017-08-13T13:38:58.868Z,1014.15
2017-08-13T13:40:09.174Z,1014.08
2017-08-13T13:41:19.142Z,1014.13
2017-08-13T13:42:29.426Z,1014.11
2017-08-13T13:43:39.664Z,1014.15
2017-08-13T13:44:49.968Z,1014.19
2017-08-13T13:45:59.644Z,1014.16
2017-08-13T13:47:09.635Z,1014.13
2017-08-13T13:48:19.931Z,1014.12
2017-08-13T13:49:30.174Z,1014.17
2017-08-13T13:50:40.455Z,1014.08
2017-08-13T13:51:50.465Z,1014.09
2017-08-13T13:53:00.757Z,1014.07
2017-08-13T13:54:10.751Z,1014.08
2017-08-13T13:55:20.676Z,1014.11
2017-08-13T13:56:30.978Z,1014.19
2017-08-13T13:57:40.957Z,1014.15
2017-08-13T13:58:51.252Z,1014.11
2017-08-13T14:00:01.242Z,1014.09
2017-08-13T14:01:11.172Z,1014.13
2017-08-13T14:02:21.155Z,1014.17
2017-08-13T14:03:31.458Z,1014.1
2017-08-13T14:04:41.428Z,1014.05
2017-08-13T14:05:51.401Z,1014.14
2017-08-13T14:07:01.930Z,1014.11
2017-08-13T14:08:12.234Z,1014.2
2017-08-13T14:09:22.517Z,1014.18
2017-08-13T14:10:32.507Z,1014.25
2017-08-13T14:11:42.482Z,1014.16